Swift Current Airport
CYYN : now visible

Airfield :











YOU CAN JOIN US ON...

 
LOGIN :

Register | Disclaimer

   EN    FR    IT 

 









Legend :    VFR   Marginal VFR   IFR   Intensive IFR   Very Intensive IFR
Visi :
Ceiling :
>= 8 km
>= 3000ft
5 to 8 km
1000 to 3000 ft
1500m to 5 km
500 to 1000 ft
800 to 1500m
200 to 500 ft
< 800m
< 200 ft
Symbols :   Thunderstorms  Fog  Heavy snow  Heavy precipitations  Wind > 20 kt







- Airport Elevation : 2680 ft
- IATA code : YYN


CYYN - Swift Current

CURRENT METAR :
  • 220600Z AUTO 35008KT 9SM CLR 08/01 A2998 RMK SLP165

EXPIRED METARs :
  • 220500Z AUTO 35008KT 9SM CLR 09/01 A2997 RMK SLP162
  • 220400Z AUTO 34008KT 9SM BKN140 09/M01 A2996 RMK SLP158

TAF TAF CYYN
Valid from the 22 at 06:00 until the 22 at 18:00 UTC


220538Z 2206/2218 35008KT P6SM SCT140
FM221100 03008KT P6SM SKC
BECMG 2216/2218 03018G28KT RMK FCST BASED ON AUTO OBS. NXT FCST BY 221200Z
CZWG FIR / North America



MET'MAP, your aeronautical weather chart ! - Copyright ORBIFLY December 2007 - Disclaimer

ORBIFLY MET'MAP TEAM :

Programming & Development : Alexandra Zaïnal
Concept & Development : Baudouin d'Aumeries
Co-Development & Prog : Marc-Olivier Méhu
Technical & hardware support : Manuel Goepfert

Contact : metmap@orbifly.com




SOURCES & CREDITS :

   NOAA       Earth
Advisory